Alexander City, Alabama
Current Conditions -  °F | °C
As of 2:35 PM on Thursday 18 Dec 2014 (Local Time) from KALX Reporting Station
Broken Clouds Broken Clouds  
Wind Chill: 59°   Ceiling: 5000
Heat Index: 59°   Visibility: 10mi
Dew Point: 24°   Wind: 3mph
Humidity: 26%   Direction: 320°NW
Pressure: 30.12"   Gusts: NA
Location:  32.94°N, 85.95°W
Report Text: KALX 182035Z AUTO 32003KT 10SM BKN050 BKN070 15/M04 A3012 RMK AO2 T01511043
Loading
Personal Weather Stations






























Interactive Weather Map New forecast layout! Learn more

10-Day Weather Forecast

Advertisements
Track Severe Weather on mobile